sensor_id;sensor_type;location;lat;lon;timestamp;temperature;humidity
63094;DHT22;49183;51.380;0.098;2023-06-24T00:01:53;18.20;82.50
63094;DHT22;49183;51.380;0.098;2023-06-24T00:04:21;18.20;82.50
63094;DHT22;49183;51.380;0.098;2023-06-24T00:06:48;18.10;82.70
63094;DHT22;49183;51.380;0.098;2023-06-24T00:09:16;18.00;82.70
63094;DHT22;49183;51.380;0.098;2023-06-24T00:11:43;18.00;82.80
63094;DHT22;49183;51.380;0.098;2023-06-24T00:14:11;17.90;82.90
63094;DHT22;49183;51.380;0.098;2023-06-24T00:16:38;17.90;83.10
63094;DHT22;49183;51.380;0.098;2023-06-24T00:19:06;17.80;83.20
63094;DHT22;49183;51.380;0.098;2023-06-24T00:21:35;17.80;83.20
63094;DHT22;49183;51.380;0.098;2023-06-24T00:24:04;17.80;83.30
63094;DHT22;49183;51.380;0.098;2023-06-24T00:26:32;17.80;83.30
63094;DHT22;49183;51.380;0.098;2023-06-24T00:29:00;17.80;83.40
63094;DHT22;49183;51.380;0.098;2023-06-24T00:31:27;17.80;83.60
63094;DHT22;49183;51.380;0.098;2023-06-24T00:33:55;17.80;83.50
63094;DHT22;49183;51.380;0.098;2023-06-24T00:36:23;17.90;83.40
63094;DHT22;49183;51.380;0.098;2023-06-24T00:38:50;17.90;83.30
63094;DHT22;49183;51.380;0.098;2023-06-24T00:41:18;17.90;83.20
63094;DHT22;49183;51.380;0.098;2023-06-24T00:43:46;17.90;83.20
63094;DHT22;49183;51.380;0.098;2023-06-24T00:46:13;17.90;83.10
63094;DHT22;49183;51.380;0.098;2023-06-24T00:48:42;18.00;83.10
63094;DHT22;49183;51.380;0.098;2023-06-24T00:51:10;18.00;83.10
63094;DHT22;49183;51.380;0.098;2023-06-24T00:53:37;18.00;83.20
63094;DHT22;49183;51.380;0.098;2023-06-24T00:56:05;18.00;83.30
63094;DHT22;49183;51.380;0.098;2023-06-24T00:58:33;18.00;83.20
63094;DHT22;49183;51.380;0.098;2023-06-24T01:01:02;18.00;83.30
63094;DHT22;49183;51.380;0.098;2023-06-24T01:03:30;18.00;83.30
63094;DHT22;49183;51.380;0.098;2023-06-24T01:05:58;18.10;83.30
63094;DHT22;49183;51.380;0.098;2023-06-24T01:08:25;18.10;83.50
63094;DHT22;49183;51.380;0.098;2023-06-24T01:10:53;18.10;83.60
63094;DHT22;49183;51.380;0.098;2023-06-24T01:13:20;18.10;83.70
63094;DHT22;49183;51.380;0.098;2023-06-24T01:15:48;18.10;83.70
63094;DHT22;49183;51.380;0.098;2023-06-24T01:31:36;18.00;84.30
63094;DHT22;49183;51.380;0.098;2023-06-24T01:34:52;17.90;84.50
63094;DHT22;49183;51.380;0.098;2023-06-24T01:39:31;17.90;84.90
63094;DHT22;49183;51.380;0.098;2023-06-24T01:42:00;17.90;85.00
63094;DHT22;49183;51.380;0.098;2023-06-24T01:44:30;17.90;84.90
63094;DHT22;49183;51.380;0.098;2023-06-24T01:46:58;17.90;84.90
63094;DHT22;49183;51.380;0.098;2023-06-24T01:49:30;17.80;84.90
63094;DHT22;49183;51.380;0.098;2023-06-24T01:51:58;17.80;85.10
63094;DHT22;49183;51.380;0.098;2023-06-24T01:54:28;17.80;85.20
63094;DHT22;49183;51.380;0.098;2023-06-24T01:56:56;17.80;85.20
63094;DHT22;49183;51.380;0.098;2023-06-24T01:59:25;17.80;85.10
63094;DHT22;49183;51.380;0.098;2023-06-24T02:01:53;17.80;85.00
63094;DHT22;49183;51.380;0.098;2023-06-24T02:04:20;17.80;85.00
63094;DHT22;49183;51.380;0.098;2023-06-24T02:06:48;17.80;85.00
63094;DHT22;49183;51.380;0.098;2023-06-24T02:09:17;17.90;84.90
63094;DHT22;49183;51.380;0.098;2023-06-24T02:11:46;17.90;84.90
63094;DHT22;49183;51.380;0.098;2023-06-24T02:14:14;17.90;84.80
63094;DHT22;49183;51.380;0.098;2023-06-24T02:16:43;17.90;84.80
63094;DHT22;49183;51.380;0.098;2023-06-24T02:19:11;17.90;84.80
63094;DHT22;49183;51.380;0.098;2023-06-24T02:21:39;17.90;84.70
63094;DHT22;49183;51.380;0.098;2023-06-24T02:24:08;17.90;84.80
63094;DHT22;49183;51.380;0.098;2023-06-24T02:26:36;17.90;84.80
63094;DHT22;49183;51.380;0.098;2023-06-24T02:29:08;17.90;84.90
63094;DHT22;49183;51.380;0.098;2023-06-24T02:31:37;17.90;84.90
63094;DHT22;49183;51.380;0.098;2023-06-24T02:34:04;17.90;84.80
63094;DHT22;49183;51.380;0.098;2023-06-24T02:36:32;18.00;84.90
63094;DHT22;49183;51.380;0.098;2023-06-24T02:38:59;17.90;84.90
63094;DHT22;49183;51.380;0.098;2023-06-24T02:41:27;17.90;84.90
63094;DHT22;49183;51.380;0.098;2023-06-24T02:43:56;18.00;85.00
63094;DHT22;49183;51.380;0.098;2023-06-24T02:46:24;17.90;85.10
63094;DHT22;49183;51.380;0.098;2023-06-24T02:48:52;17.90;85.10
63094;DHT22;49183;51.380;0.098;2023-06-24T02:51:20;17.90;85.20
63094;DHT22;49183;51.380;0.098;2023-06-24T02:53:48;17.90;85.20
63094;DHT22;49183;51.380;0.098;2023-06-24T02:56:19;17.90;85.20
63094;DHT22;49183;51.380;0.098;2023-06-24T02:58:50;17.90;85.20
63094;DHT22;49183;51.380;0.098;2023-06-24T03:01:23;17.90;85.20
63094;DHT22;49183;51.380;0.098;2023-06-24T03:03:55;17.90;85.20
63094;DHT22;49183;51.380;0.098;2023-06-24T03:06:23;17.80;85.30
63094;DHT22;49183;51.380;0.098;2023-06-24T03:08:55;17.80;85.40
63094;DHT22;49183;51.380;0.098;2023-06-24T03:11:23;17.80;85.40
63094;DHT22;49183;51.380;0.098;2023-06-24T03:13:50;17.80;85.50
63094;DHT22;49183;51.380;0.098;2023-06-24T03:16:21;17.80;85.50
63094;DHT22;49183;51.380;0.098;2023-06-24T03:19:05;17.80;85.50
63094;DHT22;49183;51.380;0.098;2023-06-24T03:21:34;17.80;85.50
63094;DHT22;49183;51.380;0.098;2023-06-24T03:24:07;17.80;85.50
63094;DHT22;49183;51.380;0.098;2023-06-24T03:26:39;17.80;85.40
63094;DHT22;49183;51.380;0.098;2023-06-24T03:29:12;17.80;85.40
63094;DHT22;49183;51.380;0.098;2023-06-24T03:31:49;17.70;85.60
63094;DHT22;49183;51.380;0.098;2023-06-24T03:34:21;17.60;85.60
63094;DHT22;49183;51.380;0.098;2023-06-24T03:36:49;17.60;85.70
63094;DHT22;49183;51.380;0.098;2023-06-24T03:39:17;17.60;85.70
63094;DHT22;49183;51.380;0.098;2023-06-24T03:41:45;17.60;85.60
63094;DHT22;49183;51.380;0.098;2023-06-24T03:44:14;17.60;85.60
63094;DHT22;49183;51.380;0.098;2023-06-24T03:46:42;17.60;85.60
63094;DHT22;49183;51.380;0.098;2023-06-24T03:49:11;17.60;85.50
63094;DHT22;49183;51.380;0.098;2023-06-24T03:51:38;17.70;85.50
63094;DHT22;49183;51.380;0.098;2023-06-24T03:54:06;17.70;85.40
63094;DHT22;49183;51.380;0.098;2023-06-24T03:56:33;17.70;85.40
63094;DHT22;49183;51.380;0.098;2023-06-24T03:59:01;17.70;85.40
63094;DHT22;49183;51.380;0.098;2023-06-24T04:01:32;17.60;85.40
63094;DHT22;49183;51.380;0.098;2023-06-24T04:04:01;17.60;85.50
63094;DHT22;49183;51.380;0.098;2023-06-24T04:06:29;17.50;85.50
63094;DHT22;49183;51.380;0.098;2023-06-24T04:08:56;17.60;85.50
63094;DHT22;49183;51.380;0.098;2023-06-24T04:11:24;17.50;85.50
63094;DHT22;49183;51.380;0.098;2023-06-24T04:13:51;17.60;85.40
63094;DHT22;49183;51.380;0.098;2023-06-24T04:16:19;17.60;85.40
63094;DHT22;49183;51.380;0.098;2023-06-24T04:18:50;17.60;85.40
63094;DHT22;49183;51.380;0.098;2023-06-24T04:21:17;17.50;85.40
63094;DHT22;49183;51.380;0.098;2023-06-24T04:23:46;17.60;85.40
63094;DHT22;49183;51.380;0.098;2023-06-24T04:26:13;17.50;85.40
63094;DHT22;49183;51.380;0.098;2023-06-24T04:28:42;17.60;85.50
63094;DHT22;49183;51.380;0.098;2023-06-24T04:31:10;17.60;85.60
63094;DHT22;49183;51.380;0.098;2023-06-24T04:33:38;17.60;85.70
63094;DHT22;49183;51.380;0.098;2023-06-24T04:36:06;17.60;85.70
63094;DHT22;49183;51.380;0.098;2023-06-24T04:38:33;17.60;85.90
63094;DHT22;49183;51.380;0.098;2023-06-24T04:41:01;17.50;86.00
63094;DHT22;49183;51.380;0.098;2023-06-24T04:43:29;17.40;86.20
63094;DHT22;49183;51.380;0.098;2023-06-24T04:45:56;17.50;86.20
63094;DHT22;49183;51.380;0.098;2023-06-24T04:48:24;17.40;86.30
63094;DHT22;49183;51.380;0.098;2023-06-24T04:50:51;17.50;86.40
63094;DHT22;49183;51.380;0.098;2023-06-24T04:53:21;17.50;86.60
63094;DHT22;49183;51.380;0.098;2023-06-24T04:55:48;17.50;86.60
63094;DHT22;49183;51.380;0.098;2023-06-24T04:58:15;17.50;86.70
63094;DHT22;49183;51.380;0.098;2023-06-24T05:00:43;17.50;86.80
63094;DHT22;49183;51.380;0.098;2023-06-24T05:03:11;17.50;86.80
63094;DHT22;49183;51.380;0.098;2023-06-24T05:05:38;17.50;86.80
63094;DHT22;49183;51.380;0.098;2023-06-24T05:08:06;17.60;86.70
63094;DHT22;49183;51.380;0.098;2023-06-24T05:10:34;17.70;86.60
63094;DHT22;49183;51.380;0.098;2023-06-24T05:13:01;17.80;86.50
63094;DHT22;49183;51.380;0.098;2023-06-24T05:15:29;17.80;86.40
63094;DHT22;49183;51.380;0.098;2023-06-24T05:17:56;17.80;86.40
63094;DHT22;49183;51.380;0.098;2023-06-24T05:20:24;17.80;86.30
63094;DHT22;49183;51.380;0.098;2023-06-24T05:22:51;17.80;86.10
63094;DHT22;49183;51.380;0.098;2023-06-24T05:25:19;17.90;86.10
63094;DHT22;49183;51.380;0.098;2023-06-24T05:27:46;17.90;86.10
63094;DHT22;49183;51.380;0.098;2023-06-24T05:30:14;17.90;86.00
63094;DHT22;49183;51.380;0.098;2023-06-24T05:32:42;18.00;86.00
63094;DHT22;49183;51.380;0.098;2023-06-24T05:35:09;18.00;86.00
63094;DHT22;49183;51.380;0.098;2023-06-24T05:37:37;18.00;86.00
63094;DHT22;49183;51.380;0.098;2023-06-24T05:40:05;18.10;85.90
63094;DHT22;49183;51.380;0.098;2023-06-24T05:42:33;18.10;85.90
63094;DHT22;49183;51.380;0.098;2023-06-24T05:45:01;18.20;85.80
63094;DHT22;49183;51.380;0.098;2023-06-24T05:47:28;18.30;85.70
63094;DHT22;49183;51.380;0.098;2023-06-24T05:49:56;18.30;85.70
63094;DHT22;49183;51.380;0.098;2023-06-24T05:52:23;18.30;85.70
63094;DHT22;49183;51.380;0.098;2023-06-24T05:54:51;18.30;85.60
63094;DHT22;49183;51.380;0.098;2023-06-24T05:57:19;18.40;85.60
63094;DHT22;49183;51.380;0.098;2023-06-24T05:59:46;18.40;85.60
63094;DHT22;49183;51.380;0.098;2023-06-24T06:02:13;18.50;85.60
63094;DHT22;49183;51.380;0.098;2023-06-24T06:04:41;18.60;85.50
63094;DHT22;49183;51.380;0.098;2023-06-24T06:07:09;18.60;85.50
63094;DHT22;49183;51.380;0.098;2023-06-24T06:09:36;18.70;85.50
63094;DHT22;49183;51.380;0.098;2023-06-24T06:12:04;18.70;85.40
63094;DHT22;49183;51.380;0.098;2023-06-24T06:14:32;18.70;85.40
63094;DHT22;49183;51.380;0.098;2023-06-24T06:16:59;18.80;85.50
63094;DHT22;49183;51.380;0.098;2023-06-24T06:19:27;18.90;85.40
63094;DHT22;49183;51.380;0.098;2023-06-24T06:21:56;19.00;85.20
63094;DHT22;49183;51.380;0.098;2023-06-24T06:24:23;19.00;85.20
63094;DHT22;49183;51.380;0.098;2023-06-24T06:26:50;19.10;85.10
63094;DHT22;49183;51.380;0.098;2023-06-24T06:29:18;19.10;85.10
63094;DHT22;49183;51.380;0.098;2023-06-24T06:31:45;19.20;85.10
63094;DHT22;49183;51.380;0.098;2023-06-24T06:34:13;19.20;85.10
63094;DHT22;49183;51.380;0.098;2023-06-24T06:36:40;19.20;85.00
63094;DHT22;49183;51.380;0.098;2023-06-24T06:39:08;19.30;85.00
63094;DHT22;49183;51.380;0.098;2023-06-24T06:41:35;19.30;85.00
63094;DHT22;49183;51.380;0.098;2023-06-24T06:44:03;19.40;85.00
63094;DHT22;49183;51.380;0.098;2023-06-24T06:46:30;19.50;85.00
63094;DHT22;49183;51.380;0.098;2023-06-24T06:48:58;19.70;84.90
63094;DHT22;49183;51.380;0.098;2023-06-24T06:51:27;19.90;84.60
63094;DHT22;49183;51.380;0.098;2023-06-24T06:53:54;20.10;84.30
63094;DHT22;49183;51.380;0.098;2023-06-24T06:56:22;20.10;84.10
63094;DHT22;49183;51.380;0.098;2023-06-24T06:58:52;20.30;84.00
63094;DHT22;49183;51.380;0.098;2023-06-24T07:01:19;20.40;83.80
63094;DHT22;49183;51.380;0.098;2023-06-24T07:03:48;20.50;83.60
63094;DHT22;49183;51.380;0.098;2023-06-24T07:06:17;20.60;83.40
63094;DHT22;49183;51.380;0.098;2023-06-24T07:08:45;20.70;83.30
63094;DHT22;49183;51.380;0.098;2023-06-24T07:11:12;20.80;83.10
63094;DHT22;49183;51.380;0.098;2023-06-24T07:13:40;20.80;83.10
63094;DHT22;49183;51.380;0.098;2023-06-24T07:16:08;20.80;83.10
63094;DHT22;49183;51.380;0.098;2023-06-24T07:18:35;21.00;83.00
63094;DHT22;49183;51.380;0.098;2023-06-24T07:21:02;21.20;82.80
63094;DHT22;49183;51.380;0.098;2023-06-24T07:23:30;21.30;82.50
63094;DHT22;49183;51.380;0.098;2023-06-24T07:25:57;21.40;82.30
63094;DHT22;49183;51.380;0.098;2023-06-24T07:28:29;21.50;82.10
63094;DHT22;49183;51.380;0.098;2023-06-24T07:30:56;21.50;81.90
63094;DHT22;49183;51.380;0.098;2023-06-24T07:33:24;21.60;81.50
63094;DHT22;49183;51.380;0.098;2023-06-24T07:35:52;21.70;81.50
63094;DHT22;49183;51.380;0.098;2023-06-24T07:38:20;21.80;81.40
63094;DHT22;49183;51.380;0.098;2023-06-24T07:40:47;22.00;81.20
63094;DHT22;49183;51.380;0.098;2023-06-24T07:43:15;22.30;80.90
63094;DHT22;49183;51.380;0.098;2023-06-24T07:45:43;22.40;80.40
63094;DHT22;49183;51.380;0.098;2023-06-24T07:48:10;22.50;80.20
63094;DHT22;49183;51.380;0.098;2023-06-24T07:50:38;22.70;79.90
63094;DHT22;49183;51.380;0.098;2023-06-24T07:53:05;22.80;79.50
63094;DHT22;49183;51.380;0.098;2023-06-24T07:55:33;22.80;78.90
63094;DHT22;49183;51.380;0.098;2023-06-24T07:58:01;22.80;79.00
63094;DHT22;49183;51.380;0.098;2023-06-24T08:00:30;22.80;78.90
63094;DHT22;49183;51.380;0.098;2023-06-24T08:02:58;22.80;78.80
63094;DHT22;49183;51.380;0.098;2023-06-24T08:05:25;22.80;78.10
63094;DHT22;49183;51.380;0.098;2023-06-24T08:07:53;22.90;77.30
63094;DHT22;49183;51.380;0.098;2023-06-24T08:10:21;22.90;77.00
63094;DHT22;49183;51.380;0.098;2023-06-24T08:12:48;23.00;77.20
63094;DHT22;49183;51.380;0.098;2023-06-24T08:15:16;23.30;76.70
63094;DHT22;49183;51.380;0.098;2023-06-24T08:17:43;23.70;75.80
63094;DHT22;49183;51.380;0.098;2023-06-24T08:20:11;24.00;75.20
63094;DHT22;49183;51.380;0.098;2023-06-24T08:22:39;24.30;74.50
63094;DHT22;49183;51.380;0.098;2023-06-24T08:25:06;24.30;73.50
63094;DHT22;49183;51.380;0.098;2023-06-24T08:27:34;24.30;72.90
63094;DHT22;49183;51.380;0.098;2023-06-24T08:30:03;24.30;72.50
63094;DHT22;49183;51.380;0.098;2023-06-24T08:32:31;24.30;72.60
63094;DHT22;49183;51.380;0.098;2023-06-24T08:34:59;24.30;72.90
63094;DHT22;49183;51.380;0.098;2023-06-24T08:37:26;24.40;72.60
63094;DHT22;49183;51.380;0.098;2023-06-24T08:39:55;24.50;71.90
63094;DHT22;49183;51.380;0.098;2023-06-24T08:42:22;24.70;71.30
63094;DHT22;49183;51.380;0.098;2023-06-24T08:44:50;24.80;70.90
63094;DHT22;49183;51.380;0.098;2023-06-24T08:47:18;25.00;71.00
63094;DHT22;49183;51.380;0.098;2023-06-24T08:49:51;25.30;70.10
63094;DHT22;49183;51.380;0.098;2023-06-24T08:52:25;25.60;68.70
63094;DHT22;49183;51.380;0.098;2023-06-24T08:54:55;25.60;68.00
63094;DHT22;49183;51.380;0.098;2023-06-24T08:57:23;25.60;67.80
63094;DHT22;49183;51.380;0.098;2023-06-24T08:59:51;25.60;68.20
63094;DHT22;49183;51.380;0.098;2023-06-24T09:02:20;25.60;67.90
63094;DHT22;49183;51.380;0.098;2023-06-24T09:04:49;25.70;67.60
63094;DHT22;49183;51.380;0.098;2023-06-24T09:07:26;25.70;67.60
63094;DHT22;49183;51.380;0.098;2023-06-24T09:09:55;25.40;67.80
63094;DHT22;49183;51.380;0.098;2023-06-24T09:12:26;25.20;68.30
63094;DHT22;49183;51.380;0.098;2023-06-24T09:14:54;25.00;68.20
63094;DHT22;49183;51.380;0.098;2023-06-24T09:17:22;24.80;68.70
63094;DHT22;49183;51.380;0.098;2023-06-24T09:19:50;24.70;68.00
63094;DHT22;49183;51.380;0.098;2023-06-24T09:22:18;24.60;68.20
63094;DHT22;49183;51.380;0.098;2023-06-24T09:24:47;24.50;68.80
63094;DHT22;49183;51.380;0.098;2023-06-24T09:27:16;24.60;68.60
63094;DHT22;49183;51.380;0.098;2023-06-24T09:29:43;24.60;68.50
63094;DHT22;49183;51.380;0.098;2023-06-24T09:32:11;24.60;68.30
63094;DHT22;49183;51.380;0.098;2023-06-24T09:34:39;24.50;68.50
63094;DHT22;49183;51.380;0.098;2023-06-24T09:37:07;24.60;68.90
63094;DHT22;49183;51.380;0.098;2023-06-24T09:39:36;24.80;69.00
63094;DHT22;49183;51.380;0.098;2023-06-24T09:42:03;24.80;68.60
63094;DHT22;49183;51.380;0.098;2023-06-24T09:44:32;24.80;68.40
63094;DHT22;49183;51.380;0.098;2023-06-24T09:46:59;24.90;68.30
63094;DHT22;49183;51.380;0.098;2023-06-24T09:49:28;24.90;68.20
63094;DHT22;49183;51.380;0.098;2023-06-24T09:51:56;25.00;68.50
63094;DHT22;49183;51.380;0.098;2023-06-24T09:54:27;25.10;68.20
63094;DHT22;49183;51.380;0.098;2023-06-24T09:57:03;25.10;68.00
63094;DHT22;49183;51.380;0.098;2023-06-24T09:59:32;25.10;67.80
63094;DHT22;49183;51.380;0.098;2023-06-24T10:02:01;25.00;68.00
63094;DHT22;49183;51.380;0.098;2023-06-24T10:04:29;25.10;68.30
63094;DHT22;49183;51.380;0.098;2023-06-24T10:06:57;25.20;68.30
63094;DHT22;49183;51.380;0.098;2023-06-24T10:09:25;25.30;68.10
63094;DHT22;49183;51.380;0.098;2023-06-24T10:11:52;25.50;67.60
63094;DHT22;49183;51.380;0.098;2023-06-24T10:14:20;25.70;67.30
63094;DHT22;49183;51.380;0.098;2023-06-24T10:16:47;25.80;66.60
63094;DHT22;49183;51.380;0.098;2023-06-24T10:19:19;25.70;65.50
63094;DHT22;49183;51.380;0.098;2023-06-24T10:21:53;25.50;65.40
63094;DHT22;49183;51.380;0.098;2023-06-24T10:27:01;25.20;66.30
63094;DHT22;49183;51.380;0.098;2023-06-24T10:29:33;25.20;66.30
63094;DHT22;49183;51.380;0.098;2023-06-24T10:32:10;25.10;65.80
63094;DHT22;49183;51.380;0.098;2023-06-24T10:39:39;24.90;66.20
63094;DHT22;49183;51.380;0.098;2023-06-24T10:44:48;25.00;66.60
63094;DHT22;49183;51.380;0.098;2023-06-24T10:47:16;25.10;66.90
63094;DHT22;49183;51.380;0.098;2023-06-24T10:49:43;25.10;67.10
63094;DHT22;49183;51.380;0.098;2023-06-24T10:52:11;25.10;67.20
63094;DHT22;49183;51.380;0.098;2023-06-24T10:54:39;24.90;67.80
63094;DHT22;49183;51.380;0.098;2023-06-24T10:57:07;24.80;68.10
63094;DHT22;49183;51.380;0.098;2023-06-24T10:59:35;24.70;68.40
63094;DHT22;49183;51.380;0.098;2023-06-24T11:02:02;24.70;68.50
63094;DHT22;49183;51.380;0.098;2023-06-24T11:04:30;24.80;68.20
63094;DHT22;49183;51.380;0.098;2023-06-24T11:06:58;24.90;67.80
63094;DHT22;49183;51.380;0.098;2023-06-24T11:09:25;25.20;66.70
63094;DHT22;49183;51.380;0.098;2023-06-24T11:11:53;25.40;65.80
63094;DHT22;49183;51.380;0.098;2023-06-24T11:14:21;25.50;65.10
63094;DHT22;49183;51.380;0.098;2023-06-24T11:16:49;25.50;64.80
63094;DHT22;49183;51.380;0.098;2023-06-24T11:19:16;25.40;64.80
63094;DHT22;49183;51.380;0.098;2023-06-24T11:21:44;25.30;64.90
63094;DHT22;49183;51.380;0.098;2023-06-24T11:24:11;25.40;65.10
63094;DHT22;49183;51.380;0.098;2023-06-24T11:26:40;25.50;65.30
63094;DHT22;49183;51.380;0.098;2023-06-24T11:29:10;25.60;65.20
63094;DHT22;49183;51.380;0.098;2023-06-24T11:31:38;25.60;65.20
63094;DHT22;49183;51.380;0.098;2023-06-24T11:34:06;25.50;65.20
63094;DHT22;49183;51.380;0.098;2023-06-24T11:36:34;25.50;65.30
63094;DHT22;49183;51.380;0.098;2023-06-24T11:39:02;25.30;65.30
63094;DHT22;49183;51.380;0.098;2023-06-24T11:41:30;25.30;65.40
63094;DHT22;49183;51.380;0.098;2023-06-24T11:43:58;25.30;65.70
63094;DHT22;49183;51.380;0.098;2023-06-24T11:49:05;25.30;65.80
63094;DHT22;49183;51.380;0.098;2023-06-24T11:51:34;25.30;65.70
63094;DHT22;49183;51.380;0.098;2023-06-24T11:54:02;25.50;65.90
63094;DHT22;49183;51.380;0.098;2023-06-24T11:56:36;25.80;65.60
63094;DHT22;49183;51.380;0.098;2023-06-24T11:59:04;26.00;65.20
63094;DHT22;49183;51.380;0.098;2023-06-24T12:01:33;26.40;64.20
63094;DHT22;49183;51.380;0.098;2023-06-24T12:04:01;26.80;63.40
63094;DHT22;49183;51.380;0.098;2023-06-24T12:06:36;27.10;63.20
63094;DHT22;49183;51.380;0.098;2023-06-24T12:09:04;27.30;63.00
63094;DHT22;49183;51.380;0.098;2023-06-24T12:11:33;27.20;62.10
63094;DHT22;49183;51.380;0.098;2023-06-24T12:14:00;27.20;61.50
63094;DHT22;49183;51.380;0.098;2023-06-24T12:16:28;27.10;59.90
63094;DHT22;49183;51.380;0.098;2023-06-24T12:18:56;27.10;59.80
63094;DHT22;49183;51.380;0.098;2023-06-24T12:21:24;27.20;59.80
63094;DHT22;49183;51.380;0.098;2023-06-24T12:23:51;27.50;59.50
63094;DHT22;49183;51.380;0.098;2023-06-24T12:26:25;27.80;59.50
63094;DHT22;49183;51.380;0.098;2023-06-24T12:28:56;28.00;58.90
63094;DHT22;49183;51.380;0.098;2023-06-24T12:31:24;28.30;57.90
63094;DHT22;49183;51.380;0.098;2023-06-24T12:33:51;28.50;57.40
63094;DHT22;49183;51.380;0.098;2023-06-24T12:36:20;28.60;56.50
63094;DHT22;49183;51.380;0.098;2023-06-24T12:38:48;28.70;56.20
63094;DHT22;49183;51.380;0.098;2023-06-24T12:41:15;28.80;55.40
63094;DHT22;49183;51.380;0.098;2023-06-24T12:43:43;28.90;55.00
63094;DHT22;49183;51.380;0.098;2023-06-24T12:46:11;29.10;54.30
63094;DHT22;49183;51.380;0.098;2023-06-24T12:48:38;29.10;54.40
63094;DHT22;49183;51.380;0.098;2023-06-24T12:51:06;29.30;54.30
63094;DHT22;49183;51.380;0.098;2023-06-24T12:53:33;29.20;54.40
63094;DHT22;49183;51.380;0.098;2023-06-24T12:56:01;29.10;54.40
63094;DHT22;49183;51.380;0.098;2023-06-24T12:58:28;28.80;54.10
63094;DHT22;49183;51.380;0.098;2023-06-24T13:00:56;28.30;54.10
63094;DHT22;49183;51.380;0.098;2023-06-24T13:03:23;28.00;54.90
63094;DHT22;49183;51.380;0.098;2023-06-24T13:05:51;28.00;54.80
63094;DHT22;49183;51.380;0.098;2023-06-24T13:08:19;28.00;55.40
63094;DHT22;49183;51.380;0.098;2023-06-24T13:10:46;28.40;55.20
63094;DHT22;49183;51.380;0.098;2023-06-24T13:13:14;28.80;54.80
63094;DHT22;49183;51.380;0.098;2023-06-24T13:15:41;29.10;53.90
63094;DHT22;49183;51.380;0.098;2023-06-24T13:18:09;29.10;53.20
63094;DHT22;49183;51.380;0.098;2023-06-24T13:20:37;29.00;53.30
63094;DHT22;49183;51.380;0.098;2023-06-24T13:23:04;29.00;53.20
63094;DHT22;49183;51.380;0.098;2023-06-24T13:25:31;29.00;52.00
63094;DHT22;49183;51.380;0.098;2023-06-24T13:27:59;28.90;52.20
63094;DHT22;49183;51.380;0.098;2023-06-24T13:30:27;29.00;52.30
63094;DHT22;49183;51.380;0.098;2023-06-24T13:32:54;29.20;52.40
63094;DHT22;49183;51.380;0.098;2023-06-24T13:35:22;29.30;52.20
63094;DHT22;49183;51.380;0.098;2023-06-24T13:37:49;29.30;51.90
63094;DHT22;49183;51.380;0.098;2023-06-24T13:40:17;29.30;51.70
63094;DHT22;49183;51.380;0.098;2023-06-24T13:42:44;29.50;51.60
63094;DHT22;49183;51.380;0.098;2023-06-24T13:45:12;29.80;51.50
63094;DHT22;49183;51.380;0.098;2023-06-24T13:47:39;30.00;50.90
63094;DHT22;49183;51.380;0.098;2023-06-24T13:50:07;30.10;50.30
63094;DHT22;49183;51.380;0.098;2023-06-24T13:52:38;29.90;50.40
63094;DHT22;49183;51.380;0.098;2023-06-24T13:55:05;29.70;50.40
63094;DHT22;49183;51.380;0.098;2023-06-24T13:57:33;29.40;50.80
63094;DHT22;49183;51.380;0.098;2023-06-24T14:00:03;29.00;51.40
63094;DHT22;49183;51.380;0.098;2023-06-24T14:02:38;28.80;51.90
63094;DHT22;49183;51.380;0.098;2023-06-24T14:05:06;28.40;52.30
63094;DHT22;49183;51.380;0.098;2023-06-24T14:07:34;28.10;53.10
63094;DHT22;49183;51.380;0.098;2023-06-24T14:10:01;27.80;54.00
63094;DHT22;49183;51.380;0.098;2023-06-24T14:12:29;27.50;54.70
63094;DHT22;49183;51.380;0.098;2023-06-24T14:14:57;27.30;55.20
63094;DHT22;49183;51.380;0.098;2023-06-24T14:17:25;27.20;55.60
63094;DHT22;49183;51.380;0.098;2023-06-24T14:19:52;27.10;56.10
63094;DHT22;49183;51.380;0.098;2023-06-24T14:22:20;27.00;56.60
63094;DHT22;49183;51.380;0.098;2023-06-24T14:24:49;27.00;57.00
63094;DHT22;49183;51.380;0.098;2023-06-24T14:27:17;27.10;57.00
63094;DHT22;49183;51.380;0.098;2023-06-24T14:29:44;27.20;57.00
63094;DHT22;49183;51.380;0.098;2023-06-24T14:32:12;27.30;56.90
63094;DHT22;49183;51.380;0.098;2023-06-24T14:34:39;27.60;57.00
63094;DHT22;49183;51.380;0.098;2023-06-24T14:37:07;27.90;56.60
63094;DHT22;49183;51.380;0.098;2023-06-24T14:39:34;28.10;56.10
63094;DHT22;49183;51.380;0.098;2023-06-24T14:42:02;28.20;55.90
63094;DHT22;49183;51.380;0.098;2023-06-24T14:44:30;28.30;55.70
63094;DHT22;49183;51.380;0.098;2023-06-24T14:46:57;28.50;55.60
63094;DHT22;49183;51.380;0.098;2023-06-24T14:49:24;28.80;55.30
63094;DHT22;49183;51.380;0.098;2023-06-24T14:51:52;29.00;54.70
63094;DHT22;49183;51.380;0.098;2023-06-24T14:54:20;28.90;54.10
63094;DHT22;49183;51.380;0.098;2023-06-24T14:56:47;28.80;53.40
63094;DHT22;49183;51.380;0.098;2023-06-24T14:59:15;28.80;53.40
63094;DHT22;49183;51.380;0.098;2023-06-24T15:01:42;28.60;53.40
63094;DHT22;49183;51.380;0.098;2023-06-24T15:04:10;28.40;53.50
63094;DHT22;49183;51.380;0.098;2023-06-24T15:06:38;28.40;53.70
63094;DHT22;49183;51.380;0.098;2023-06-24T15:09:05;28.20;53.70
63094;DHT22;49183;51.380;0.098;2023-06-24T15:11:33;27.90;54.00
63094;DHT22;49183;51.380;0.098;2023-06-24T15:14:00;27.70;54.30
63094;DHT22;49183;51.380;0.098;2023-06-24T15:16:28;27.60;54.50
63094;DHT22;49183;51.380;0.098;2023-06-24T15:18:56;27.50;54.70
63094;DHT22;49183;51.380;0.098;2023-06-24T15:21:23;27.40;54.90
63094;DHT22;49183;51.380;0.098;2023-06-24T15:24:03;27.30;54.90
63094;DHT22;49183;51.380;0.098;2023-06-24T15:26:30;27.30;55.00
63094;DHT22;49183;51.380;0.098;2023-06-24T15:28:58;27.30;55.10
63094;DHT22;49183;51.380;0.098;2023-06-24T15:31:25;27.30;55.10
63094;DHT22;49183;51.380;0.098;2023-06-24T15:33:54;27.40;54.90
63094;DHT22;49183;51.380;0.098;2023-06-24T15:36:21;27.60;54.80
63094;DHT22;49183;51.380;0.098;2023-06-24T15:38:55;27.80;54.70
63094;DHT22;49183;51.380;0.098;2023-06-24T15:41:25;27.90;54.50
63094;DHT22;49183;51.380;0.098;2023-06-24T15:43:52;27.90;54.40
63094;DHT22;49183;51.380;0.098;2023-06-24T15:46:20;27.90;54.50
63094;DHT22;49183;51.380;0.098;2023-06-24T15:48:50;27.90;54.60
63094;DHT22;49183;51.380;0.098;2023-06-24T15:51:18;27.80;54.80
63094;DHT22;49183;51.380;0.098;2023-06-24T15:53:46;27.80;54.70
63094;DHT22;49183;51.380;0.098;2023-06-24T15:56:14;27.70;54.80
63094;DHT22;49183;51.380;0.098;2023-06-24T15:58:42;27.70;55.00
63094;DHT22;49183;51.380;0.098;2023-06-24T16:01:09;27.80;55.10
63094;DHT22;49183;51.380;0.098;2023-06-24T16:03:37;27.80;54.90
63094;DHT22;49183;51.380;0.098;2023-06-24T16:06:06;27.90;54.60